Terminal Aerodrome Forecast
Issued by NWS

Home | Current Version | Previous Version | Graphics & Text | Print | Product List | Glossary On
Versions: 1 2 3 4 5 6 7 8 9 10 11 12 13 14 15 16 17 18 19 20 21
000
FTUS43 KMPX 182337
TAFAXN
TAF
KAXN 182337Z 1900/1924 36016G23KT P6SM SCT025 OVC110
     FM190300 36016G22KT P6SM VCSH OVC015
     FM190900 02013G20KT 5SM -SN OVC015
     FM191500 03014G21KT P6SM OVC025 PROB30 1920/1924 1SM -SN BR
      OVC015=

USA.gov is the U.S. government's official web portal to all federal, state and local government web resources and services.